Time;durP1;ratioP1;P1;durP2;ratioP2;P2;SDS_P1;SDS_P2;PMS_P1;PMS_P2;Temp;Humidity;BMP_temperature;BMP_pressure;BME280_temperature;BME280_humidity;BME280_pressure;Samples;Min_cycle;Max_cycle;Signal;HPM_P1;HPM_P2
2022/06/16 00:00:17;;;;;;;3.55;2.50;;;;;;;22.52;50.09;99918.81;4997277;28;20064;-87
2022/06/16 00:02:47;;;;;;;3.53;2.28;;;;;;;22.39;49.63;99925.16;4997346;28;20025;-87
2022/06/16 00:05:15;;;;;;;4.43;2.58;;;;;;;22.37;49.80;99924.53;5011696;28;20037;-85
2022/06/16 00:07:41;;;;;;;5.32;2.63;;;;;;;22.33;50.50;99925.19;5012501;28;20029;-86
2022/06/16 00:10:07;;;;;;;5.03;2.67;;;;;;;22.40;50.19;99923.25;4997035;28;20345;-86
2022/06/16 00:12:33;;;;;;;4.75;2.67;;;;;;;22.43;50.49;99925.56;5013378;28;20071;-86
2022/06/16 00:14:58;;;;;;;2.50;2.30;;;;;;;22.39;50.13;99929.75;4996915;28;20414;-86
2022/06/16 00:17:24;;;;;;;3.58;2.42;;;;;;;22.42;50.51;99923.88;5013016;28;20032;-87
2022/06/16 00:19:49;;;;;;;4.60;2.60;;;;;;;22.44;50.08;99935.41;4995912;28;20036;-85
2022/06/16 00:22:15;;;;;;;3.92;2.30;;;;;;;22.39;50.32;99925.16;4997085;28;20071;-86
2022/06/16 00:24:40;;;;;;;2.92;2.30;;;;;;;22.41;50.41;99924.94;5013132;28;20030;-86
2022/06/16 00:27:05;;;;;;;3.88;2.30;;;;;;;22.30;50.45;99919.09;4996726;28;20029;-87
2022/06/16 00:29:33;;;;;;;2.78;2.55;;;;;;;22.30;50.83;99921.81;4996470;28;20021;-86
2022/06/16 00:31:58;;;;;;;4.03;2.63;;;;;;;22.32;50.30;99920.78;4995351;28;20024;-86
2022/06/16 00:34:24;;;;;;;3.97;2.42;;;;;;;22.33;50.61;99923.28;4996704;28;20026;-86
2022/06/16 00:36:49;;;;;;;3.70;2.40;;;;;;;22.34;50.72;99915.94;4996655;28;20116;-87
2022/06/16 00:39:14;;;;;;;4.53;2.40;;;;;;;22.26;50.31;99914.31;4996361;28;20120;-86
2022/06/16 00:41:40;;;;;;;4.43;2.30;;;;;;;22.30;50.16;99921.81;4996138;28;20069;-87
2022/06/16 00:44:20;;;;;;;4.72;2.58;;;;;;;22.34;51.03;99926.84;4995449;28;20033;-86
2022/06/16 00:46:46;;;;;;;3.50;2.53;;;;;;;22.24;51.23;99925.41;5012567;28;20029;-87
2022/06/16 00:49:12;;;;;;;3.08;2.30;;;;;;;22.23;51.06;99923.75;4996233;28;20056;-86
2022/06/16 00:51:44;;;;;;;4.15;2.28;;;;;;;22.27;51.33;99927.72;4995841;28;20387;-86
2022/06/16 00:54:31;;;;;;;3.35;2.50;;;;;;;22.24;50.66;99917.25;4996412;28;20022;-87
2022/06/16 00:57:00;;;;;;;3.20;2.33;;;;;;;22.19;51.88;99927.09;5012344;28;20029;-86
2022/06/16 00:59:25;;;;;;;3.33;2.53;;;;;;;22.23;51.26;99931.03;5008366;28;20032;-86
2022/06/16 01:01:56;;;;;;;5.03;2.65;;;;;;;22.22;52.49;99940.28;5012315;28;20469;-86
2022/06/16 01:07:11;;;;;;;4.68;2.30;;;;;;;22.06;52.20;99951.63;5015295;28;20506;-87
2022/06/16 01:09:37;;;;;;;7.40;2.50;;;;;;;22.02;51.73;99940.28;4996400;28;20021;-87
2022/06/16 01:15:45;;;;;;;3.15;2.55;;;;;;;22.03;52.32;99931.09;5029383;28;20048;-87
2022/06/16 01:18:34;;;;;;;3.80;2.25;;;;;;;22.03;52.00;99936.56;5476353;23;20555;-87
2022/06/16 01:21:11;;;;;;;4.55;2.50;;;;;;;22.00;52.17;99937.78;5003364;28;20026;-86
2022/06/16 01:24:13;;;;;;;5.13;2.60;;;;;;;21.99;53.11;99941.56;5003911;28;20033;-87
2022/06/16 01:27:00;;;;;;;3.67;2.55;;;;;;;21.85;52.85;99949.97;4991913;28;20022;-86
2022/06/16 01:30:02;;;;;;;3.30;3.00;;;;;;;21.81;53.21;99955.00;4988816;28;20018;-87
2022/06/16 01:32:37;;;;;;;3.90;2.40;;;;;;;21.87;53.19;99937.81;4987229;28;20030;-86
2022/06/16 01:35:06;;;;;;;3.70;2.78;;;;;;;21.95;52.97;99944.94;4995001;28;20420;-87
2022/06/16 01:37:44;;;;;;;3.47;2.65;;;;;;;21.93;53.21;99949.75;4989625;28;20030;-87
2022/06/16 01:40:35;;;;;;;3.93;2.70;;;;;;;21.89;52.85;99949.34;5007196;28;20054;-87
2022/06/16 01:43:15;;;;;;;4.55;2.85;;;;;;;21.85;52.31;99952.69;4989341;28;20107;-86
2022/06/16 01:45:57;;;;;;;4.82;2.80;;;;;;;21.85;53.80;99949.97;4990938;28;20494;-86
2022/06/16 01:48:23;;;;;;;4.25;2.75;;;;;;;21.82;53.00;99947.66;4976049;28;20064;-86
2022/06/16 01:50:52;;;;;;;3.85;2.28;;;;;;;21.81;53.83;99962.34;4967618;28;20114;-87
2022/06/16 01:53:24;;;;;;;3.90;2.80;;;;;;;21.77;53.42;99961.09;4967162;28;20076;-86
2022/06/16 01:56:15;;;;;;;3.25;2.92;;;;;;;21.81;53.28;99949.56;4950970;28;20059;-87
2022/06/16 01:58:43;;;;;;;3.10;2.80;;;;;;;21.80;53.27;99961.50;4944627;28;20046;-86
2022/06/16 02:01:11;;;;;;;3.78;2.92;;;;;;;21.81;53.41;99970.50;4954541;28;20118;-87
2022/06/16 02:03:39;;;;;;;4.68;2.90;;;;;;;21.75;53.33;99974.88;4954067;28;20082;-86
2022/06/16 02:06:12;;;;;;;3.40;2.60;;;;;;;21.75;53.58;99976.75;4951819;28;20030;-86
2022/06/16 02:08:45;;;;;;;4.25;2.90;;;;;;;21.68;53.21;99969.44;4954903;28;20069;-86
2022/06/16 02:11:31;;;;;;;4.28;2.80;;;;;;;21.68;53.74;99961.28;4953259;28;20023;-87
2022/06/16 02:14:03;;;;;;;2.80;2.50;;;;;;;21.69;53.85;99968.38;4968809;28;20022;-88
2022/06/16 02:16:31;;;;;;;3.67;2.95;;;;;;;21.70;53.92;99971.94;4963585;28;20096;-87
2022/06/16 02:18:57;;;;;;;4.88;2.80;;;;;;;21.63;54.14;99980.13;4951472;28;20082;-87
2022/06/16 02:21:31;;;;;;;3.78;3.00;;;;;;;21.68;53.57;99977.59;4950268;28;20069;-87
2022/06/16 02:23:57;;;;;;;6.10;2.92;;;;;;;21.66;53.89;99973.41;4951538;28;20121;-87
2022/06/16 02:26:23;;;;;;;5.53;2.88;;;;;;;21.59;54.32;99975.31;4953759;28;20030;-87
2022/06/16 02:28:50;;;;;;;4.22;2.50;;;;;;;21.52;54.21;99975.31;4968199;28;20062;-87
2022/06/16 02:31:23;;;;;;;3.85;2.67;;;;;;;21.49;55.13;99974.88;4951337;28;20029;-86
2022/06/16 02:34:02;;;;;;;3.50;2.63;;;;;;;21.52;55.15;99974.47;4951448;28;20030;-87
2022/06/16 02:36:47;;;;;;;3.70;2.97;;;;;;;21.48;54.83;99967.75;4970758;28;20114;-87
2022/06/16 02:39:28;;;;;;;4.28;2.70;;;;;;;21.47;54.74;99958.75;4966599;28;20034;-88
2022/06/16 02:42:13;;;;;;;5.63;2.85;;;;;;;21.39;55.12;99958.13;4969756;28;20112;-88
2022/06/16 02:45:05;;;;;;;3.30;2.83;;;;;;;21.39;55.64;99967.13;4968707;28;20033;-87
2022/06/16 02:48:02;;;;;;;5.10;3.10;;;;;;;21.28;55.21;99976.72;4986234;28;20026;-87
2022/06/16 02:50:32;;;;;;;4.18;3.00;;;;;;;21.18;55.20;99967.25;4979092;28;20111;-88
2022/06/16 02:53:10;;;;;;;4.45;2.95;;;;;;;21.22;55.29;99963.91;4968330;28;20046;-88
2022/06/16 02:55:40;;;;;;;6.15;2.90;;;;;;;21.24;55.79;99975.47;4966410;28;20069;-87
2022/06/16 02:58:07;;;;;;;3.92;3.08;;;;;;;21.16;55.49;99980.22;4952387;28;20549;-87
2022/06/16 03:00:45;;;;;;;4.45;3.10;;;;;;;21.17;55.31;99988.19;4953102;28;20037;-88
2022/06/16 03:03:26;;;;;;;4.35;3.03;;;;;;;21.14;55.14;99987.75;4951345;28;20434;-87
2022/06/16 03:05:54;;;;;;;3.45;3.00;;;;;;;21.13;55.25;100002.41;4948760;28;20500;-87
2022/06/16 03:08:27;;;;;;;5.20;3.80;;;;;;;21.09;55.29;100007.41;4948742;28;20022;-87
2022/06/16 03:10:54;;;;;;;5.63;3.53;;;;;;;20.97;55.94;100006.34;4965193;28;20035;-88
2022/06/16 03:13:28;;;;;;;3.90;3.45;;;;;;;21.01;55.13;100007.59;4967416;28;20499;-88
2022/06/16 03:15:55;;;;;;;4.40;3.22;;;;;;;21.01;56.00;99999.44;4968608;28;20029;-88
2022/06/16 03:18:22;;;;;;;6.23;3.30;;;;;;;20.92;56.28;100000.66;4948908;28;20046;-87
2022/06/16 03:20:48;;;;;;;5.70;3.60;;;;;;;20.90;55.86;100002.75;4978798;28;20026;-88
2022/06/16 03:23:14;;;;;;;4.25;3.30;;;;;;;20.93;55.55;100011.34;4950949;28;20031;-88
2022/06/16 03:25:40;;;;;;;3.97;3.40;;;;;;;20.92;55.30;100011.53;4950580;28;20027;-87
2022/06/16 03:28:06;;;;;;;5.38;3.60;;;;;;;20.90;55.49;100019.91;4966903;28;20029;-87
2022/06/16 03:30:33;;;;;;;7.13;3.90;;;;;;;20.78;56.17;100016.06;4951527;28;20113;-87
2022/06/16 03:32:59;;;;;;;4.43;3.70;;;;;;;20.67;55.92;100020.22;4982520;28;20030;-88
2022/06/16 03:35:24;;;;;;;4.70;3.90;;;;;;;20.63;56.22;100020.81;4967443;28;20084;-86
2022/06/16 03:37:50;;;;;;;4.57;3.63;;;;;;;20.68;56.06;100021.88;4951877;28;20473;-88
2022/06/16 03:40:15;;;;;;;5.15;3.35;;;;;;;20.69;56.23;100018.13;4951169;28;20552;-87
2022/06/16 03:42:40;;;;;;;3.78;3.35;;;;;;;20.70;55.96;100019.78;4967513;28;20571;-88
2022/06/16 03:45:07;;;;;;;4.28;3.63;;;;;;;20.69;56.85;100018.13;4951085;28;20023;-87
2022/06/16 03:47:32;;;;;;;4.05;3.25;;;;;;;20.64;56.76;100020.59;4949908;28;20063;-87
2022/06/16 03:49:58;;;;;;;5.95;3.58;;;;;;;20.64;56.26;100020.59;4952355;28;20054;-88
2022/06/16 03:52:23;;;;;;;4.85;3.30;;;;;;;20.70;55.72;100032.56;4956628;28;20061;-88
2022/06/16 03:54:49;;;;;;;5.00;3.72;;;;;;;20.62;56.43;100039.00;4966211;28;20039;-88
2022/06/16 03:57:14;;;;;;;5.22;3.60;;;;;;;20.61;56.21;100041.91;4967583;28;20018;-88
2022/06/16 03:59:39;;;;;;;4.57;4.07;;;;;;;20.67;56.70;100046.53;4952221;28;20475;-87
2022/06/16 04:02:05;;;;;;;3.97;3.50;;;;;;;20.64;56.08;100046.94;4952412;28;20031;-87
2022/06/16 04:04:30;;;;;;;4.90;4.07;;;;;;;20.66;55.99;100047.59;4966883;28;20114;-88
2022/06/16 04:06:56;;;;;;;4.63;3.40;;;;;;;20.57;56.22;100052.34;4965594;28;20033;-88
2022/06/16 04:09:21;;;;;;;4.53;3.70;;;;;;;20.59;56.66;100054.88;4950959;28;20073;-88
2022/06/16 04:11:47;;;;;;;5.97;3.92;;;;;;;20.54;56.56;100052.75;4966341;28;20039;-88
2022/06/16 04:14:14;;;;;;;5.18;3.65;;;;;;;20.55;56.36;100053.59;4949479;28;20476;-88
2022/06/16 04:16:52;;;;;;;5.22;3.80;;;;;;;20.50;56.38;100056.91;4983876;28;20444;-88
2022/06/16 04:19:23;;;;;;;7.28;3.58;;;;;;;20.49;57.12;100063.38;4950431;28;20125;-88
2022/06/16 04:21:49;;;;;;;4.68;3.40;;;;;;;20.53;56.88;100066.53;4952411;28;20527;-88
2022/06/16 04:24:16;;;;;;;5.50;3.72;;;;;;;20.51;56.62;100071.34;4948204;28;20034;-88
2022/06/16 04:26:42;;;;;;;4.47;3.67;;;;;;;20.47;57.01;100065.47;4967093;28;20085;-88
2022/06/16 04:29:10;;;;;;;4.45;3.70;;;;;;;20.45;57.18;100077.56;4950722;28;20030;-88
2022/06/16 04:31:36;;;;;;;5.47;3.75;;;;;;;20.47;56.53;100080.94;4951603;28;20054;-88
2022/06/16 04:34:02;;;;;;;4.60;3.75;;;;;;;20.50;57.09;100084.09;4950042;28;20080;-88
2022/06/16 04:36:27;;;;;;;6.07;3.67;;;;;;;20.51;56.12;100082.19;4961195;28;20015;-88
2022/06/16 04:38:53;;;;;;;5.50;3.83;;;;;;;20.43;57.01;100083.19;4947984;28;20460;-88
2022/06/16 04:41:18;;;;;;;6.07;3.78;;;;;;;20.47;56.59;100078.22;4949430;28;20022;-88
2022/06/16 04:43:44;;;;;;;4.20;3.80;;;;;;;20.48;56.92;100080.72;4948686;28;20011;-88
2022/06/16 04:46:12;;;;;;;6.30;3.80;;;;;;;20.48;56.60;100091.59;4950701;28;20026;-88
2022/06/16 04:48:37;;;;;;;6.07;3.80;;;;;;;20.49;56.79;100082.41;4948219;28;20023;-88
2022/06/16 04:51:03;;;;;;;6.32;4.18;;;;;;;20.46;56.74;100079.25;4965862;28;20038;-88
2022/06/16 04:53:30;;;;;;;4.57;3.83;;;;;;;20.49;55.94;100081.56;4950449;28;20051;-88
2022/06/16 04:55:57;;;;;;;4.97;3.70;;;;;;;20.34;56.53;100085.19;4966187;28;20404;-87
2022/06/16 04:58:23;;;;;;;5.60;4.13;;;;;;;;;;4965508;28;20034;-88
2022/06/16 05:00:49;;;;;;;6.10;4.05;;;;;;;20.32;56.32;100091.84;4984251;28;20899;-88
2022/06/16 05:03:16;;;;;;;5.00;4.00;;;;;;;20.28;56.73;100101.44;4949368;28;20123;-88
2022/06/16 05:05:41;;;;;;;5.90;4.35;;;;;;;20.25;56.39;100105.38;4949537;28;20034;-87
2022/06/16 05:08:07;;;;;;;5.03;3.90;;;;;;;20.17;55.96;100110.94;4951145;28;20037;-87
2022/06/16 05:10:32;;;;;;;6.18;4.28;;;;;;;20.21;55.57;100120.38;4947863;28;20026;-87
2022/06/16 05:12:57;;;;;;;5.10;3.67;;;;;;;20.13;54.92;100126.81;4950815;28;20121;-88
2022/06/16 05:15:23;;;;;;;4.57;4.03;;;;;;;20.11;55.20;100128.03;4949751;28;20026;-87
2022/06/16 05:17:48;;;;;;;5.65;3.97;;;;;;;20.10;55.57;100129.91;4946928;28;20027;-88
2022/06/16 05:20:13;;;;;;;4.30;3.67;;;;;;;20.09;54.47;100130.94;4963073;28;20059;-87
2022/06/16 05:22:39;;;;;;;5.50;3.72;;;;;;;20.03;54.59;100139.03;4946579;28;20030;-87
2022/06/16 05:25:05;;;;;;;6.28;4.15;;;;;;;20.06;53.72;100141.34;4950027;28;20054;-88
2022/06/16 05:27:30;;;;;;;5.70;4.10;;;;;;;20.00;54.12;100134.84;4969955;28;20444;-88
2022/06/16 05:29:55;;;;;;;6.07;3.90;;;;;;;20.10;52.97;100138.06;4965795;28;20477;-87
2022/06/16 05:32:21;;;;;;;5.47;4.00;;;;;;;20.14;52.92;100141.22;4948853;28;20216;-87
2022/06/16 05:34:46;;;;;;;4.18;3.60;;;;;;;20.13;53.78;100150.41;4953036;28;20026;-88
2022/06/16 05:37:12;;;;;;;6.05;3.90;;;;;;;20.21;52.90;100152.13;4966760;28;20049;-88
2022/06/16 05:39:37;;;;;;;6.22;3.80;;;;;;;20.25;52.75;100158.84;4949118;28;20027;-88
2022/06/16 05:42:03;;;;;;;4.95;3.70;;;;;;;20.35;52.91;100157.50;4948530;28;20114;-88
2022/06/16 05:44:28;;;;;;;6.47;3.85;;;;;;;20.29;52.37;100169.13;4950680;28;20030;-88
2022/06/16 05:46:53;;;;;;;6.50;4.05;;;;;;;20.08;51.79;100170.00;4951451;28;20085;-88
2022/06/16 05:49:19;;;;;;;5.53;3.75;;;;;;;20.08;52.55;100172.72;4949874;28;20026;-88
2022/06/16 05:51:44;;;;;;;4.32;3.67;;;;;;;20.16;52.00;100169.03;4946569;28;20076;-88
2022/06/16 05:54:09;;;;;;;5.25;3.88;;;;;;;20.19;51.77;100173.22;4950129;28;20173;-88
2022/06/16 05:56:35;;;;;;;7.00;3.90;;;;;;;20.12;52.09;100174.00;4949891;28;20047;-88
2022/06/16 05:59:00;;;;;;;5.90;3.88;;;;;;;19.97;51.33;100173.22;4949434;28;20026;-88
2022/06/16 06:01:26;;;;;;;6.93;3.80;;;;;;;20.11;52.23;100174.19;4946636;28;20425;-88
2022/06/16 06:03:51;;;;;;;4.80;3.63;;;;;;;19.98;52.36;100169.47;4968275;28;20031;-88
2022/06/16 06:06:17;;;;;;;5.40;3.85;;;;;;;20.12;51.63;100179.44;4984697;28;20485;-88
2022/06/16 06:17:03;;;;;;;5.45;3.78;;;;;;;19.86;52.60;100187.28;4986992;28;20042;-88
2022/06/16 06:19:28;;;;;;;4.90;3.67;;;;;;;19.92;52.95;100188.44;4951563;28;20046;-88
2022/06/16 06:22:10;;;;;;;4.72;3.58;;;;;;;20.07;53.16;100183.78;4955178;28;20073;-87
2022/06/16 06:24:38;;;;;;;7.15;3.60;;;;;;;20.07;52.78;100191.91;4954959;28;20022;-88
2022/06/16 06:27:09;;;;;;;5.15;3.42;;;;;;;19.96;52.15;100196.00;4969445;28;20027;-87
2022/06/16 06:29:34;;;;;;;4.50;3.30;;;;;;;20.02;51.13;100197.09;4952148;28;20084;-88
2022/06/16 06:32:01;;;;;;;5.82;2.88;;;;;;;19.95;51.54;100205.16;4950843;28;20030;-88
2022/06/16 06:34:27;;;;;;;5.57;3.17;;;;;;;19.99;50.86;100201.03;4951503;28;20113;-88
2022/06/16 06:36:52;;;;;;;5.05;3.45;;;;;;;20.00;50.31;100205.44;4950173;28;20118;-87
2022/06/16 06:39:18;;;;;;;4.88;3.33;;;;;;;20.04;50.95;100206.72;4953315;28;20058;-87
2022/06/16 06:41:43;;;;;;;4.45;3.35;;;;;;;20.01;50.53;100198.13;4953493;28;20031;-87
2022/06/16 06:44:09;;;;;;;6.70;3.00;;;;;;;20.10;50.74;100202.38;4954633;28;20030;-87
2022/06/16 06:46:34;;;;;;;5.85;3.10;;;;;;;20.16;51.30;100206.22;4949303;28;20124;-87
2022/06/16 06:48:59;;;;;;;3.97;3.13;;;;;;;20.18;50.77;100213.13;4952995;28;20034;-87
2022/06/16 06:51:25;;;;;;;4.38;3.33;;;;;;;20.19;50.50;100213.97;4952649;28;20022;-88
2022/06/16 06:53:50;;;;;;;5.75;3.28;;;;;;;20.15;51.23;100223.53;4969275;28;20370;-88
2022/06/16 06:56:16;;;;;;;5.75;3.38;;;;;;;20.08;50.74;100223.47;4965208;28;20525;-88
2022/06/16 06:58:41;;;;;;;3.70;3.00;;;;;;;20.11;50.50;100228.50;4965156;28;20484;-87
2022/06/16 07:01:07;;;;;;;4.90;3.15;;;;;;;20.06;50.82;100229.09;4963479;28;20037;-88
2022/06/16 07:03:32;;;;;;;6.97;3.05;;;;;;;20.06;50.84;100236.41;4967833;28;20031;-88
2022/06/16 07:06:01;;;;;;;3.95;3.00;;;;;;;20.08;50.89;100240.59;4949135;28;20026;-88
2022/06/16 07:08:27;;;;;;;4.15;3.35;;;;;;;20.04;51.13;100241.19;4968374;28;20034;-87
2022/06/16 07:10:53;;;;;;;5.22;3.20;;;;;;;20.05;50.99;100232.84;4949943;28;20041;-87
2022/06/16 07:13:18;;;;;;;4.47;3.42;;;;;;;20.03;50.56;100240.34;4949248;28;20389;-87
2022/06/16 07:15:44;;;;;;;4.63;2.92;;;;;;;20.01;51.38;100238.84;4951212;28;20906;-87
2022/06/16 07:18:09;;;;;;;6.10;3.47;;;;;;;19.97;51.49;100237.56;4948765;28;20129;-87
2022/06/16 07:20:34;;;;;;;4.95;3.17;;;;;;;20.09;50.99;100245.00;4963113;28;20088;-86
2022/06/16 07:23:00;;;;;;;5.00;3.03;;;;;;;20.14;51.06;100247.13;4954294;28;20030;-87
2022/06/16 07:25:25;;;;;;;4.85;3.47;;;;;;;20.11;51.39;100253.78;4948130;28;20101;-87
2022/06/16 07:27:53;;;;;;;5.07;3.30;;;;;;;20.12;50.72;100257.34;4953489;28;20070;-87
2022/06/16 07:30:19;;;;;;;8.63;3.58;;;;;;;20.14;50.76;100268.88;4951847;28;20054;-86
2022/06/16 07:32:46;;;;;;;4.45;2.88;;;;;;;20.02;51.86;100265.81;4948818;28;20384;-87
2022/06/16 07:35:13;;;;;;;5.15;3.10;;;;;;;20.11;51.07;100264.66;4948755;28;20056;-86
2022/06/16 07:37:39;;;;;;;4.35;2.97;;;;;;;20.12;51.92;100271.78;4957630;28;20102;-87
2022/06/16 07:40:06;;;;;;;6.00;3.13;;;;;;;20.20;51.48;100281.66;4949918;28;20450;-86
2022/06/16 07:42:31;;;;;;;4.60;3.10;;;;;;;20.19;51.14;100276.44;4948729;28;20424;-87
2022/06/16 07:44:56;;;;;;;6.07;3.05;;;;;;;20.23;50.23;100275.00;4947304;28;20018;-90
2022/06/16 07:47:22;;;;;;;4.63;2.80;;;;;;;20.27;50.64;100285.28;4947639;28;20027;-90
2022/06/16 07:49:49;;;;;;;4.28;2.63;;;;;;;20.31;50.72;100281.16;4947729;28;20023;-90
2022/06/16 07:52:14;;;;;;;5.30;2.42;;;;;;;20.39;51.42;100293.81;4949399;28;20042;-90
2022/06/16 07:54:40;;;;;;;5.68;3.30;;;;;;;20.36;51.02;100292.31;4947144;28;20030;-90
2022/06/16 07:57:05;;;;;;;4.93;3.10;;;;;;;20.32;50.77;100292.88;4949400;28;20477;-90
2022/06/16 07:59:30;;;;;;;3.75;2.67;;;;;;;20.43;50.56;100295.13;4947078;28;20031;-90
2022/06/16 08:01:56;;;;;;;5.40;2.85;;;;;;;20.45;51.18;100303.09;4943198;28;20381;-85
2022/06/16 08:04:21;;;;;;;4.97;3.53;;;;;;;20.36;51.18;100307.78;4957795;28;20476;-85
2022/06/16 08:06:47;;;;;;;4.50;3.03;;;;;;;20.45;51.11;100308.53;4948891;28;20044;-86
2022/06/16 08:09:12;;;;;;;4.90;2.83;;;;;;;20.42;50.76;100302.44;4944584;28;20034;-86
2022/06/16 08:14:22;;;;;;;4.90;3.53;;;;;;;20.44;50.98;100310.41;4969572;28;20037;-86
2022/06/16 08:16:48;;;;;;;5.28;3.38;;;;;;;20.50;50.73;100301.47;4951567;28;20428;-85
2022/06/16 08:19:13;;;;;;;4.57;2.80;;;;;;;20.54;51.34;100293.78;4951282;28;20053;-86
2022/06/16 08:21:39;;;;;;;5.68;3.45;;;;;;;20.60;51.33;100306.56;4960252;28;20497;-86
2022/06/16 08:24:06;;;;;;;6.20;3.40;;;;;;;20.54;51.10;100307.34;4949356;28;20031;-86
2022/06/16 08:26:32;;;;;;;7.00;3.70;;;;;;;20.46;51.10;100311.03;4981307;28;20477;-86
2022/06/16 08:28:57;;;;;;;5.13;3.35;;;;;;;20.50;51.71;100301.47;4947393;28;20029;-86
2022/06/16 08:31:23;;;;;;;7.22;3.78;;;;;;;20.43;50.87;100308.72;4950817;28;20034;-86
2022/06/16 08:33:50;;;;;;;4.85;3.30;;;;;;;20.47;51.73;100311.88;4950209;28;20032;-86
2022/06/16 08:36:16;;;;;;;3.42;2.83;;;;;;;20.57;52.00;100302.38;4946693;28;20176;-86
2022/06/16 08:38:41;;;;;;;4.30;2.80;;;;;;;20.62;51.44;100297.19;4946928;28;20179;-86
2022/06/16 08:41:12;;;;;;;6.38;3.60;;;;;;;20.63;51.36;100306.19;4950549;28;20026;-86
2022/06/16 08:43:55;;;;;;;5.88;3.90;;;;;;;20.43;51.10;100311.44;4948398;28;20133;-86
2022/06/16 08:46:21;;;;;;;7.50;3.50;;;;;;;20.47;51.88;100311.88;4960405;28;20080;-86
2022/06/16 08:48:51;;;;;;;5.60;3.50;;;;;;;20.53;51.59;100311.09;4950639;28;20034;-86
2022/06/16 08:51:33;;;;;;;4.13;3.05;;;;;;;20.56;51.64;100305.28;4980595;28;20489;-86
2022/06/16 08:54:31;;;;;;;3.50;2.67;;;;;;;20.65;50.77;100309.56;4973898;28;20039;-86
2022/06/16 08:57:29;;;;;;;4.05;3.30;;;;;;;20.57;50.28;100329.56;4966938;28;20119;-86
2022/06/16 09:00:03;;;;;;;4.65;3.50;;;;;;;20.57;51.01;100334.16;4979796;28;20050;-86
2022/06/16 09:03:07;;;;;;;4.85;3.20;;;;;;;20.49;51.15;100332.41;4963441;28;20023;-88
2022/06/16 09:05:33;;;;;;;4.03;2.50;;;;;;;20.50;49.88;100342.22;4947703;28;20473;-86
2022/06/16 09:08:01;;;;;;;4.18;2.83;;;;;;;20.46;48.83;100349.09;4981022;28;20033;-87
2022/06/16 09:10:39;;;;;;;3.30;2.75;;;;;;;20.56;49.40;100341.47;4980165;28;20109;-85
2022/06/16 09:13:36;;;;;;;4.65;3.30;;;;;;;20.47;49.42;100345.34;4980067;28;20118;-86
2022/06/16 09:16:14;;;;;;;5.72;2.30;;;;;;;20.59;49.89;100356.53;4966947;28;20502;-86
2022/06/16 09:18:52;;;;;;;3.72;3.00;;;;;;;20.57;47.90;100353.16;4947129;28;20085;-86
2022/06/16 09:21:33;;;;;;;5.00;2.72;;;;;;;20.56;48.29;100362.34;4982506;28;20030;-85
2022/06/16 09:24:05;;;;;;;5.20;2.00;;;;;;;20.51;43.65;100357.50;4965303;28;20477;-85
2022/06/16 09:26:52;;;;;;;3.40;1.75;;;;;;;20.47;42.88;100358.09;4977874;28;20034;-86
2022/06/16 09:29:24;;;;;;;3.10;1.75;;;;;;;20.58;44.66;100361.13;4967219;28;20030;-85
2022/06/16 09:32:23;;;;;;;2.13;1.60;;;;;;;20.67;44.30;100364.56;4947716;28;20069;-86
2022/06/16 09:35:05;;;;;;;3.15;1.80;;;;;;;20.63;42.17;100372.25;4963444;28;20114;-86
2022/06/16 09:38:02;;;;;;;2.92;1.63;;;;;;;20.57;43.56;100375.75;4964496;28;20523;-86
2022/06/16 09:40:31;;;;;;;3.88;1.70;;;;;;;20.61;44.06;100373.50;4958149;28;20050;-85
2022/06/16 09:42:59;;;;;;;4.53;1.80;;;;;;;20.69;44.29;100382.34;4975077;28;20034;-86
2022/06/16 09:45:32;;;;;;;4.90;1.83;;;;;;;20.79;45.72;100389.34;4985716;28;20509;-86
2022/06/16 09:48:35;;;;;;;2.58;1.35;;;;;;;20.86;44.66;100390.28;4982149;28;20030;-86
2022/06/16 09:51:20;;;;;;;1.80;1.30;;;;;;;20.88;43.41;100386.34;4945061;28;20090;-86
2022/06/16 09:53:49;;;;;;;2.65;1.50;;;;;;;20.92;43.85;100384.06;4979405;28;20512;-85
2022/06/16 09:56:29;;;;;;;4.03;1.60;;;;;;;20.89;43.24;100385.31;4969042;28;20042;-85
2022/06/16 09:58:57;;;;;;;1.70;1.50;;;;;;;20.84;42.36;100390.50;4963646;28;20029;-86
2022/06/16 10:01:25;;;;;;;1.40;1.27;;;;;;;20.84;43.18;100385.03;4963008;28;20026;-86
2022/06/16 10:03:56;;;;;;;2.17;1.45;;;;;;;20.83;43.40;100379.81;4964981;28;20069;-85
2022/06/16 10:06:53;;;;;;;3.38;1.65;;;;;;;20.81;43.76;100377.28;4969528;28;20030;-86
2022/06/16 10:09:54;;;;;;;1.77;1.20;;;;;;;20.85;43.13;100373.13;4982366;28;20505;-85
2022/06/16 10:12:23;;;;;;;2.45;1.30;;;;;;;20.90;43.48;100376.09;4924919;28;20078;-86
2022/06/16 10:14:57;;;;;;;1.50;1.20;;;;;;;20.98;43.16;100377.84;4983182;28;20027;-85
2022/06/16 10:17:23;;;;;;;2.33;1.30;;;;;;;21.02;41.24;100381.88;4967426;28;20046;-86
2022/06/16 10:19:50;;;;;;;1.95;1.10;;;;;;;20.98;41.82;100377.84;4965219;28;20042;-86
2022/06/16 10:22:17;;;;;;;1.70;1.40;;;;;;;20.98;41.53;100381.41;4948558;28;20034;-85
2022/06/16 10:25:15;;;;;;;1.38;1.27;;;;;;;20.95;41.30;100375.53;4952205;28;20058;-85
2022/06/16 10:27:50;;;;;;;2.33;1.30;;;;;;;20.89;40.86;100374.44;4944369;28;20057;-86
2022/06/16 10:30:24;;;;;;;2.90;1.10;;;;;;;20.92;41.97;100378.63;4962511;28;20034;-86
2022/06/16 10:33:03;;;;;;;2.67;1.45;;;;;;;21.01;42.23;100382.91;4982520;28;20092;-86
2022/06/16 10:35:28;;;;;;;1.70;1.20;;;;;;;21.02;41.94;100392.75;4981119;28;20034;-86
2022/06/16 10:37:54;;;;;;;1.92;1.20;;;;;;;21.01;42.16;100397.34;4962044;28;20015;-86
2022/06/16 10:40:40;;;;;;;1.73;1.40;;;;;;;21.04;42.71;100393.38;4963828;28;20030;-87
2022/06/16 10:43:11;;;;;;;2.67;1.20;;;;;;;21.10;43.63;100397.19;4958050;28;20027;-87
2022/06/16 10:45:38;;;;;;;2.63;1.42;;;;;;;21.14;43.10;100399.34;4970918;28;20019;-89
2022/06/16 10:48:24;;;;;;;2.05;1.40;;;;;;;21.05;42.25;100397.78;4949191;28;20025;-87
2022/06/16 10:51:10;;;;;;;4.28;1.70;;;;;;;21.04;41.93;100396.94;4965197;28;20051;-87
2022/06/16 10:53:39;;;;;;;2.30;1.42;;;;;;;21.05;43.29;100404.06;4950568;28;20027;-90
2022/06/16 10:56:10;;;;;;;3.30;1.55;;;;;;;21.04;43.02;100399.66;4948408;28;20029;-90
2022/06/16 10:58:48;;;;;;;3.50;1.60;;;;;;;21.01;42.27;100399.22;4954210;28;20134;-90
2022/06/16 11:01:18;;;;;;;2.40;1.50;;;;;;;21.00;42.83;100394.81;4965167;28;20539;-90
2022/06/16 11:03:47;;;;;;;1.58;1.20;;;;;;;21.10;45.28;100387.16;4970476;28;20039;-89
2022/06/16 11:06:18;;;;;;;2.80;1.45;;;;;;;21.24;44.23;100379.97;4945320;28;20023;-89
2022/06/16 11:08:48;;;;;;;2.60;1.77;;;;;;;21.22;42.78;100373.88;4966636;28;20926;-90
2022/06/16 11:11:17;;;;;;;2.97;1.70;;;;;;;21.17;43.15;100365.47;4951293;28;20121;-88
2022/06/16 11:13:54;;;;;;;2.45;1.50;;;;;;;21.22;44.31;100382.03;4964066;28;20035;-87
2022/06/16 11:16:30;;;;;;;2.30;1.50;;;;;;;21.40;43.65;100378.88;4949425;28;20022;-87
2022/06/16 11:18:58;;;;;;;2.10;1.33;;;;;;;21.44;44.04;100377.44;4947634;28;20181;-87
2022/06/16 11:21:30;;;;;;;1.58;1.15;;;;;;;21.48;44.43;100368.69;4962638;28;20045;-88
2022/06/16 11:23:58;;;;;;;1.88;1.20;;;;;;;21.58;46.63;100376.50;4977262;28;20100;-87
2022/06/16 11:26:33;;;;;;;3.45;1.42;;;;;;;21.61;44.26;100378.81;4947702;28;20030;-88
2022/06/16 11:29:10;;;;;;;2.30;1.52;;;;;;;21.52;43.74;100378.13;4964114;28;20033;-87
2022/06/16 11:31:40;;;;;;;1.38;1.27;;;;;;;21.53;43.66;100384.41;4982706;28;20189;-87
2022/06/16 11:34:16;;;;;;;2.40;1.70;;;;;;;21.54;42.54;100386.09;4983845;28;20026;-88
2022/06/16 11:36:50;;;;;;;1.60;1.10;;;;;;;21.65;45.83;100383.66;4980510;28;20045;-88
2022/06/16 11:39:41;;;;;;;1.60;1.27;;;;;;;21.73;43.35;100384.53;4983406;28;20031;-88
2022/06/16 11:42:35;;;;;;;2.03;1.50;;;;;;;21.76;42.19;100384.13;4978324;28;20046;-88
2022/06/16 11:45:07;;;;;;;1.65;1.40;;;;;;;21.73;40.75;100379.09;4953559;28;20058;-88
2022/06/16 11:48:09;;;;;;;1.50;1.38;;;;;;;21.77;41.15;100383.97;4949212;28;20022;-88
2022/06/16 11:50:55;;;;;;;2.80;1.40;;;;;;;21.83;43.05;100393.22;4981237;28;20031;-88
2022/06/16 11:53:20;;;;;;;1.48;1.38;;;;;;;21.87;41.80;100391.78;4946716;28;20027;-88
2022/06/16 11:55:50;;;;;;;2.67;1.65;;;;;;;21.88;41.34;100379.84;4979765;28;20019;-88
2022/06/16 11:58:30;;;;;;;3.33;1.55;;;;;;;21.95;41.72;100395.16;4962570;28;20406;-88
2022/06/16 12:00:58;;;;;;;2.08;1.60;;;;;;;22.02;40.52;100375.28;4977504;28;20037;-89